Terminal Aerodrome Forecast
Issued by NWS St Louis, MO

Home | Current Version | Previous Version | Text Only | Print | Product List | Glossary On
Versions: 1 2 3 4 5 6 7 8 9 10 11 12 13 14 15 16 17 18 19 20 21 22 23 24 25 26 27 28
000
FTUS43 KLSX 070530
TAFSTL
TAF
KSTL 070530Z 0706/0812 19008KT P6SM SCT040 BKN150
     FM070700 22008KT 5SM -SHRA VCTS SCT015CB BKN040
     FM071400 30008KT P6SM VCSH OVC010
     FM072300 01005KT P6SM SCT025 BKN040
     FM080200 05007KT P6SM SCT025 BKN050=

USA.gov is the U.S. government's official web portal to all federal, state and local government web resources and services.